createdAt,value
2017-06-15T00:00:45.590Z,1013.31
2017-06-15T00:01:57.827Z,1013.32
2017-06-15T00:03:10.044Z,1013.35
2017-06-15T00:04:22.572Z,1013.33
2017-06-15T00:05:34.819Z,1013.33
2017-06-15T00:06:47.378Z,1013.33
2017-06-15T00:07:59.599Z,1013.33
2017-06-15T00:09:11.807Z,1013.33
2017-06-15T00:10:24.353Z,1013.35
2017-06-15T00:11:36.891Z,1013.39
2017-06-15T00:12:49.437Z,1013.34
2017-06-15T00:14:01.940Z,1013.35
2017-06-15T00:15:13.862Z,1013.34
2017-06-15T00:16:26.432Z,1013.37
2017-06-15T00:17:38.974Z,1013.35
2017-06-15T00:18:51.516Z,1013.31
2017-06-15T00:20:03.744Z,1013.29
2017-06-15T00:21:16.288Z,1013.27
2017-06-15T00:22:28.809Z,1013.25
2017-06-15T00:23:41.358Z,1013.25
2017-06-15T00:24:53.875Z,1013.24
2017-06-15T00:26:06.398Z,1013.22
2017-06-15T00:27:18.620Z,1013.2
2017-06-15T00:28:30.838Z,1013.21
2017-06-15T00:29:43.364Z,1013.21
2017-06-15T00:30:55.907Z,1013.21
2017-06-15T00:32:08.750Z,1013.21
2017-06-15T00:33:21.314Z,1013.25
2017-06-15T00:34:33.844Z,1013.28
2017-06-15T00:35:46.384Z,1013.26
2017-06-15T00:36:58.913Z,1013.26
2017-06-15T00:38:11.457Z,1013.26
2017-06-15T00:39:23.693Z,1013.31
2017-06-15T00:40:36.221Z,1013.28
2017-06-15T00:41:48.746Z,1013.29
2017-06-15T00:43:01.569Z,1013.34
2017-06-15T00:44:14.114Z,1013.3
2017-06-15T00:45:26.335Z,1013.3
2017-06-15T00:46:38.880Z,1013.3
2017-06-15T00:47:51.396Z,1013.31
2017-06-15T00:49:03.939Z,1013.27
2017-06-15T00:50:16.445Z,1013.25
2017-06-15T00:51:28.985Z,1013.22
2017-06-15T00:52:41.208Z,1013.19
2017-06-15T00:53:53.755Z,1013.16
2017-06-15T00:55:05.976Z,1013.15
2017-06-15T00:56:18.214Z,1013.11
2017-06-15T00:57:30.760Z,1013.11
2017-06-15T00:58:43.289Z,1013.1
2017-06-15T00:59:55.530Z,1013.13
2017-06-15T01:01:07.737Z,1013.12
2017-06-15T01:02:20.275Z,1013.14
2017-06-15T01:03:32.811Z,1013.14
2017-06-15T01:04:45.019Z,1013.15
2017-06-15T01:05:57.560Z,1013.14
2017-06-15T01:07:10.084Z,1013.18
2017-06-15T01:08:22.282Z,1013.12
2017-06-15T01:09:34.823Z,1013.1
2017-06-15T01:10:47.044Z,1013.11
2017-06-15T01:11:59.618Z,1013.12
2017-06-15T01:13:12.211Z,1013.13
2017-06-15T01:14:24.719Z,1013.12
2017-06-15T01:15:37.255Z,1013.1
2017-06-15T01:16:49.474Z,1013.14
2017-06-15T01:18:02.019Z,1013.1
2017-06-15T01:19:14.243Z,1013.11
2017-06-15T01:20:26.792Z,1013.07
2017-06-15T01:21:39.311Z,1013.06
2017-06-15T01:22:51.834Z,1013.1
2017-06-15T01:24:04.355Z,1013.1
2017-06-15T01:25:16.888Z,1013.13
2017-06-15T01:26:29.716Z,1013.13
2017-06-15T01:27:42.211Z,1013.12
2017-06-15T01:28:54.433Z,1013.11
2017-06-15T01:30:06.933Z,1013.05
2017-06-15T01:31:19.167Z,1013.12
2017-06-15T01:32:31.388Z,1013.08
2017-06-15T01:33:43.946Z,1013.12
2017-06-15T01:34:56.166Z,1013.08
2017-06-15T01:36:08.730Z,1013.08
2017-06-15T01:37:21.254Z,1013.14
2017-06-15T01:38:33.753Z,1013.13
2017-06-15T01:39:46.263Z,1013.15
2017-06-15T01:40:58.771Z,1013.16
2017-06-15T01:42:11.291Z,1013.2
2017-06-15T01:43:23.829Z,1013.2
2017-06-15T01:44:36.379Z,1013.19
2017-06-15T01:45:48.600Z,1013.13
2017-06-15T01:47:01.139Z,1013.14
2017-06-15T01:48:13.366Z,1013.11
2017-06-15T01:49:25.288Z,1013.15
2017-06-15T01:50:37.537Z,1013.21
2017-06-15T01:51:50.084Z,1013.19
2017-06-15T01:53:02.643Z,1013.18
2017-06-15T01:54:15.177Z,1013.17
2017-06-15T01:55:27.403Z,1013.15
2017-06-15T01:56:39.892Z,1013.14
2017-06-15T01:57:52.433Z,1013.17
2017-06-15T01:59:04.673Z,1013.15
2017-06-15T02:00:17.207Z,1013.16
2017-06-15T02:01:29.740Z,1013.17
2017-06-15T02:02:42.246Z,1013.17
2017-06-15T02:03:54.468Z,1013.15
2017-06-15T02:05:06.689Z,1013.17
2017-06-15T02:06:19.181Z,1013.17
2017-06-15T02:07:31.731Z,1013.16
2017-06-15T02:08:44.248Z,1013.18
2017-06-15T02:09:56.786Z,1013.18
2017-06-15T02:11:08.998Z,1013.22
2017-06-15T02:12:21.228Z,1013.2
2017-06-15T02:13:33.748Z,1013.22
2017-06-15T02:14:46.258Z,1013.22
2017-06-15T02:15:58.775Z,1013.23
2017-06-15T02:17:11.298Z,1013.17
2017-06-15T02:18:23.540Z,1013.2
2017-06-15T02:19:36.065Z,1013.24
2017-06-15T02:20:48.582Z,1013.22
2017-06-15T02:22:01.097Z,1013.21
2017-06-15T02:23:13.641Z,1013.19
2017-06-15T02:24:26.177Z,1013.25
2017-06-15T02:25:38.421Z,1013.21
2017-06-15T02:26:50.956Z,1013.24
2017-06-15T02:28:03.186Z,1013.21
2017-06-15T02:29:15.429Z,1013.23
2017-06-15T02:30:27.975Z,1013.22
2017-06-15T02:31:40.495Z,1013.19
2017-06-15T02:32:53.012Z,1013.2
2017-06-15T02:34:05.531Z,1013.18
2017-06-15T02:35:17.162Z,1013.2
2017-06-15T02:36:29.700Z,1013.17
2017-06-15T02:37:41.629Z,1013.19
2017-06-15T02:38:54.174Z,1013.23
2017-06-15T02:40:06.722Z,1013.25
2017-06-15T02:41:19.265Z,1013.24
2017-06-15T02:42:31.811Z,1013.21
2017-06-15T02:43:44.349Z,1013.23
2017-06-15T02:44:56.882Z,1013.25
2017-06-15T02:46:09.450Z,1013.23
2017-06-15T02:47:22.013Z,1013.26
2017-06-15T02:48:34.570Z,1013.25
2017-06-15T02:49:47.104Z,1013.23
2017-06-15T02:50:59.652Z,1013.25
2017-06-15T02:52:11.868Z,1013.28
2017-06-15T02:53:24.392Z,1013.28
2017-06-15T02:54:36.938Z,1013.24
2017-06-15T02:55:49.485Z,1013.25
2017-06-15T02:57:01.715Z,1013.25
2017-06-15T02:58:14.237Z,1013.26
2017-06-15T02:59:26.472Z,1013.26
2017-06-15T03:00:39.004Z,1013.25
2017-06-15T03:01:51.545Z,1013.28
2017-06-15T03:03:04.064Z,1013.24
2017-06-15T03:04:16.892Z,1013.24
2017-06-15T03:05:29.422Z,1013.26
2017-06-15T03:06:41.955Z,1013.3
2017-06-15T03:07:54.502Z,1013.29
2017-06-15T03:09:07.044Z,1013.29
2017-06-15T03:10:19.598Z,1013.32
2017-06-15T03:11:31.787Z,1013.32
2017-06-15T03:12:44.006Z,1013.28
2017-06-15T03:13:56.548Z,1013.28
2017-06-15T03:15:09.055Z,1013.26
2017-06-15T03:16:21.586Z,1013.23
2017-06-15T03:17:34.115Z,1013.24
2017-06-15T03:18:46.641Z,1013.22
2017-06-15T03:19:59.232Z,1013.25
2017-06-15T03:21:11.730Z,1013.21
2017-06-15T03:22:23.677Z,1013.27
2017-06-15T03:23:36.199Z,1013.29
2017-06-15T03:24:48.740Z,1013.25
2017-06-15T03:26:01.286Z,1013.3
2017-06-15T03:27:13.510Z,1013.31
2017-06-15T03:28:25.727Z,1013.32
2017-06-15T03:29:37.953Z,1013.31
2017-06-15T03:30:50.495Z,1013.34
2017-06-15T03:32:02.720Z,1013.35
2017-06-15T03:33:14.928Z,1013.35
2017-06-15T03:34:27.482Z,1013.39
2017-06-15T03:35:39.406Z,1013.38
2017-06-15T03:36:51.652Z,1013.38
2017-06-15T03:38:03.895Z,1013.35
2017-06-15T03:39:16.436Z,1013.37
2017-06-15T03:40:28.987Z,1013.4
2017-06-15T03:41:41.186Z,1013.36
2017-06-15T03:42:53.685Z,1013.38
2017-06-15T03:44:06.205Z,1013.38
2017-06-15T03:45:18.725Z,1013.36
2017-06-15T03:46:31.270Z,1013.37
2017-06-15T03:47:43.817Z,1013.37
2017-06-15T03:48:56.333Z,1013.32
2017-06-15T03:50:08.855Z,1013.29
2017-06-15T03:51:21.378Z,1013.29
2017-06-15T03:52:33.902Z,1013.31
2017-06-15T03:53:46.401Z,1013.33
2017-06-15T03:54:58.917Z,1013.33
2017-06-15T03:56:11.434Z,1013.31
2017-06-15T03:57:23.950Z,1013.35
2017-06-15T03:58:36.494Z,1013.33
2017-06-15T03:59:48.996Z,1013.3
2017-06-15T04:01:01.249Z,1013.33
2017-06-15T04:02:13.759Z,1013.3
2017-06-15T04:03:25.993Z,1013.29
2017-06-15T04:04:38.509Z,1013.33
2017-06-15T04:05:51.051Z,1013.32
2017-06-15T04:07:03.252Z,1013.29
2017-06-15T04:08:15.490Z,1013.32
2017-06-15T04:09:28.016Z,1013.28
2017-06-15T04:10:40.255Z,1013.34
2017-06-15T04:11:52.801Z,1013.31
2017-06-15T04:13:05.032Z,1013.35
2017-06-15T04:14:17.254Z,1013.37
2017-06-15T04:15:29.798Z,1013.37
2017-06-15T04:16:42.340Z,1013.36
2017-06-15T04:17:54.835Z,1013.37
2017-06-15T04:19:07.384Z,1013.33
2017-06-15T04:20:19.623Z,1013.32
2017-06-15T04:21:32.153Z,1013.34
2017-06-15T04:22:44.696Z,1013.37
2017-06-15T04:23:57.219Z,1013.37
2017-06-15T04:25:09.736Z,1013.35
2017-06-15T04:26:22.562Z,1013.37
2017-06-15T04:27:35.111Z,1013.37
2017-06-15T04:28:47.629Z,1013.33
2017-06-15T04:30:00.145Z,1013.34
2017-06-15T04:31:12.366Z,1013.33
2017-06-15T04:32:24.892Z,1013.27
2017-06-15T04:33:37.432Z,1013.28
2017-06-15T04:34:49.954Z,1013.28
2017-06-15T04:36:02.495Z,1013.25
2017-06-15T04:37:15.312Z,1013.21
2017-06-15T04:38:27.560Z,1013.25
2017-06-15T04:39:39.762Z,1013.3
2017-06-15T04:40:52.300Z,1013.26
2017-06-15T04:42:04.833Z,1013.3
2017-06-15T04:43:17.349Z,1013.26
2017-06-15T04:44:29.584Z,1013.27
2017-06-15T04:45:41.799Z,1013.25
2017-06-15T04:46:54.054Z,1013.23
2017-06-15T04:48:06.566Z,1013.24
2017-06-15T04:49:18.799Z,1013.25
2017-06-15T04:50:31.354Z,1013.3
2017-06-15T04:51:43.894Z,1013.3
2017-06-15T04:52:56.762Z,1013.31
2017-06-15T04:54:09.263Z,1013.31
2017-06-15T04:55:21.779Z,1013.32
2017-06-15T04:56:34.330Z,1013.34
2017-06-15T04:57:46.829Z,1013.35
2017-06-15T04:58:59.377Z,1013.32
2017-06-15T05:00:11.913Z,1013.31
2017-06-15T05:01:24.143Z,1013.35
2017-06-15T05:02:36.687Z,1013.34
2017-06-15T05:03:49.533Z,1013.32
2017-06-15T05:05:02.031Z,1013.32
2017-06-15T05:06:14.590Z,1013.28
2017-06-15T05:07:27.109Z,1013.28
2017-06-15T05:08:39.645Z,1013.27
2017-06-15T05:09:51.884Z,1013.24
2017-06-15T05:11:04.114Z,1013.28
2017-06-15T05:12:16.646Z,1013.29
2017-06-15T05:13:28.918Z,1013.27
2017-06-15T05:14:41.468Z,1013.26
2017-06-15T05:15:54.023Z,1013.26
2017-06-15T05:17:06.538Z,1013.28
2017-06-15T05:18:19.073Z,1013.28
2017-06-15T05:19:31.610Z,1013.26
2017-06-15T05:20:44.151Z,1013.19
2017-06-15T05:21:56.736Z,1013.17
2017-06-15T05:23:08.944Z,1013.17
2017-06-15T05:24:21.463Z,1013.19
2017-06-15T05:25:33.982Z,1013.2
2017-06-15T05:26:46.525Z,1013.25
2017-06-15T05:27:59.061Z,1013.19
2017-06-15T05:29:11.594Z,1013.2
2017-06-15T05:30:24.109Z,1013.19
2017-06-15T05:31:36.665Z,1013.17
2017-06-15T05:32:49.235Z,1013.15
2017-06-15T05:34:01.774Z,1013.15
2017-06-15T05:35:14.016Z,1013.16
2017-06-15T05:36:26.246Z,1013.17
2017-06-15T05:37:38.786Z,1013.11
2017-06-15T05:38:51.299Z,1013.14
2017-06-15T05:40:03.528Z,1013.12
2017-06-15T05:41:15.737Z,1013.12
2017-06-15T05:42:27.999Z,1013.16
2017-06-15T05:43:40.221Z,1013.17
2017-06-15T05:44:52.775Z,1013.17
2017-06-15T05:46:05.033Z,1013.17
2017-06-15T05:47:17.292Z,1013.21
2017-06-15T05:48:29.832Z,1013.21
2017-06-15T05:49:42.067Z,1013.26
2017-06-15T05:50:54.574Z,1013.23
2017-06-15T05:52:07.116Z,1013.23
2017-06-15T05:53:19.662Z,1013.22
2017-06-15T05:54:32.180Z,1013.23
2017-06-15T05:55:44.710Z,1013.29
2017-06-15T05:56:57.224Z,1013.29
2017-06-15T05:58:08.573Z,1013.28
2017-06-15T05:59:20.817Z,1013.31
2017-06-15T06:00:33.331Z,1013.27
2017-06-15T06:01:45.876Z,1013.26
2017-06-15T06:02:58.382Z,1013.25
2017-06-15T06:04:10.930Z,1013.29
2017-06-15T06:05:23.481Z,1013.26
2017-06-15T06:06:36.017Z,1013.27
2017-06-15T06:07:48.535Z,1013.27
2017-06-15T06:09:01.078Z,1013.29
2017-06-15T06:10:13.288Z,1013.29
2017-06-15T06:11:25.840Z,1013.32
2017-06-15T06:12:38.376Z,1013.24
2017-06-15T06:13:50.924Z,1013.23
2017-06-15T06:15:03.469Z,1013.19
2017-06-15T06:16:15.712Z,1013.22
2017-06-15T06:17:28.277Z,1013.23
2017-06-15T06:18:40.831Z,1013.56
2017-06-15T06:19:53.698Z,1013.92
2017-06-15T06:21:05.663Z,1013.91
2017-06-15T06:22:17.911Z,1013.94
2017-06-15T06:23:30.435Z,1013.86
2017-06-15T06:24:42.934Z,1013.81
2017-06-15T06:25:55.156Z,1013.77
2017-06-15T06:27:07.703Z,1013.76
2017-06-15T06:28:20.223Z,1013.58
2017-06-15T06:29:32.458Z,1013.35
2017-06-15T06:30:44.703Z,1013.52
2017-06-15T06:31:57.249Z,1013.76
2017-06-15T06:33:09.495Z,1013.75
2017-06-15T06:34:21.741Z,1013.59
2017-06-15T06:35:33.973Z,1013.74
2017-06-15T06:36:46.561Z,1014.04
2017-06-15T06:37:58.792Z,1014.13
2017-06-15T06:39:11.376Z,1014.09
2017-06-15T06:40:23.907Z,1014.15
2017-06-15T06:41:36.135Z,1014.11
2017-06-15T06:42:48.687Z,1014.08
2017-06-15T06:44:01.212Z,1014.01
2017-06-15T06:45:13.766Z,1013.96
2017-06-15T06:46:26.025Z,1013.88
2017-06-15T06:47:38.532Z,1013.83
2017-06-15T06:48:51.074Z,1013.81
2017-06-15T06:50:03.601Z,1013.83
2017-06-15T06:51:15.836Z,1013.78
2017-06-15T06:52:28.095Z,1013.74
2017-06-15T06:53:40.314Z,1013.77
2017-06-15T06:54:52.864Z,1013.83
2017-06-15T06:56:04.805Z,1013.83
2017-06-15T06:57:17.375Z,1013.83
2017-06-15T06:58:29.937Z,1013.88
2017-06-15T06:59:42.172Z,1013.89
2017-06-15T07:00:54.729Z,1013.86
2017-06-15T07:02:06.676Z,1013.79
2017-06-15T07:03:18.593Z,1013.76
2017-06-15T07:04:31.143Z,1013.8
2017-06-15T07:05:43.692Z,1013.75
2017-06-15T07:06:55.938Z,1013.81
2017-06-15T07:08:07.855Z,1013.8
2017-06-15T07:09:20.408Z,1013.85
2017-06-15T07:10:32.981Z,1013.83
2017-06-15T07:11:45.222Z,1013.69
2017-06-15T07:12:57.471Z,1013.54
2017-06-15T07:14:10.014Z,1013.47
2017-06-15T07:15:22.556Z,1013.4
2017-06-15T07:16:35.123Z,1013.36
2017-06-15T07:17:47.655Z,1013.34
2017-06-15T07:19:00.194Z,1013.37
2017-06-15T07:20:12.463Z,1013.3
2017-06-15T07:21:25.006Z,1013.28
2017-06-15T07:22:37.528Z,1013.31
2017-06-15T07:23:49.752Z,1013.31
2017-06-15T07:25:02.321Z,1013.27
2017-06-15T07:26:14.552Z,1013.31
2017-06-15T07:27:27.115Z,1013.21
2017-06-15T07:28:39.682Z,1013.21
2017-06-15T07:29:51.914Z,1013.2
2017-06-15T07:31:04.484Z,1013.16
2017-06-15T07:32:16.745Z,1013.13
2017-06-15T07:33:29.281Z,1013.12
2017-06-15T07:34:41.537Z,1013.17
2017-06-15T07:35:54.083Z,1013.12
2017-06-15T07:37:06.632Z,1013.14
2017-06-15T07:38:18.903Z,1013.13
2017-06-15T07:39:31.449Z,1013.13
2017-06-15T07:40:43.994Z,1013.16
2017-06-15T07:41:56.237Z,1013.15
2017-06-15T07:43:08.450Z,1013.14
2017-06-15T07:44:20.705Z,1013.13
2017-06-15T07:45:32.964Z,1013.19
2017-06-15T07:46:45.507Z,1013.15
2017-06-15T07:47:58.067Z,1013.19
2017-06-15T07:49:10.323Z,1013.13
2017-06-15T07:50:22.616Z,1013.19
2017-06-15T07:51:34.840Z,1013.14
2017-06-15T07:52:47.405Z,1013.13
2017-06-15T07:53:59.950Z,1013.18
2017-06-15T07:55:12.228Z,1013.16
2017-06-15T07:56:24.496Z,1013.17
2017-06-15T07:57:37.343Z,1013.18
2017-06-15T07:58:49.305Z,1013.2
2017-06-15T08:00:01.530Z,1013.19
2017-06-15T08:01:13.805Z,1013.24
2017-06-15T08:02:26.080Z,1013.2
2017-06-15T08:03:38.622Z,1013.14
2017-06-15T08:04:51.136Z,1013.15
2017-06-15T08:06:03.706Z,1013.16
2017-06-15T08:07:15.962Z,1013.17
2017-06-15T08:08:28.534Z,1013.15
2017-06-15T08:09:41.109Z,1013.15
2017-06-15T08:10:53.647Z,1013.17
2017-06-15T08:12:05.901Z,1013.15
2017-06-15T08:13:18.468Z,1013.16
2017-06-15T08:14:31.014Z,1013.16
2017-06-15T08:15:43.576Z,1013.19
2017-06-15T08:16:56.127Z,1013.17
2017-06-15T08:18:08.368Z,1013.11
2017-06-15T08:19:20.625Z,1013.11
2017-06-15T08:20:32.889Z,1013.1
2017-06-15T08:21:45.156Z,1013.08
2017-06-15T08:22:57.385Z,1013.03
2017-06-15T08:24:09.933Z,1013.04
2017-06-15T08:25:21.597Z,1013.06
2017-06-15T08:26:34.194Z,1013.06
2017-06-15T08:27:46.739Z,1013.05
2017-06-15T08:28:59.289Z,1013.05
2017-06-15T08:30:11.534Z,1013.03
2017-06-15T08:31:24.119Z,1013.04
2017-06-15T08:32:36.674Z,1013.03
2017-06-15T08:33:49.223Z,1013
2017-06-15T08:35:01.822Z,1013.01
2017-06-15T08:36:14.085Z,1013.03
2017-06-15T08:37:26.339Z,1013.05
2017-06-15T08:38:38.882Z,1013.08
2017-06-15T08:39:50.844Z,1013.07
2017-06-15T08:41:03.395Z,1013.08
2017-06-15T08:42:15.965Z,1013.09
2017-06-15T08:43:28.229Z,1013.09
2017-06-15T08:44:40.478Z,1013
2017-06-15T08:45:53.053Z,1012.98
2017-06-15T08:47:05.303Z,1012.99
2017-06-15T08:48:17.887Z,1012.97
2017-06-15T08:49:30.465Z,1012.96
2017-06-15T08:50:42.707Z,1012.95
2017-06-15T08:51:55.025Z,1012.92
2017-06-15T08:53:07.579Z,1013.01
2017-06-15T08:54:20.145Z,1013.02
2017-06-15T08:55:32.699Z,1013
2017-06-15T08:56:45.290Z,1012.99
2017-06-15T08:57:57.865Z,1012.93
2017-06-15T08:59:10.454Z,1012.94
2017-06-15T09:00:23.006Z,1012.93
2017-06-15T09:01:35.578Z,1012.93
2017-06-15T09:02:48.120Z,1012.92
2017-06-15T09:04:00.370Z,1012.86
2017-06-15T09:05:12.344Z,1012.83
2017-06-15T09:06:24.583Z,1012.83
2017-06-15T09:07:36.880Z,1012.78
2017-06-15T09:08:49.454Z,1012.83
2017-06-15T09:10:02.026Z,1012.83
2017-06-15T09:11:14.285Z,1012.82
2017-06-15T09:12:26.843Z,1012.79
2017-06-15T09:13:39.412Z,1012.78
2017-06-15T09:14:51.679Z,1012.75
2017-06-15T09:16:04.256Z,1012.76
2017-06-15T09:17:16.531Z,1012.74
2017-06-15T09:18:29.070Z,1012.74
2017-06-15T09:19:41.614Z,1012.74
2017-06-15T09:20:54.163Z,1012.71
2017-06-15T09:22:06.728Z,1012.77
2017-06-15T09:23:19.304Z,1012.73
2017-06-15T09:24:31.872Z,1012.76
2017-06-15T09:25:44.424Z,1012.71
2017-06-15T09:26:56.693Z,1012.68
2017-06-15T09:28:08.963Z,1012.69
2017-06-15T09:29:21.231Z,1012.73
2017-06-15T09:30:33.752Z,1012.73
2017-06-15T09:31:45.994Z,1012.77
2017-06-15T09:32:58.564Z,1012.71
2017-06-15T09:34:11.092Z,1012.7
2017-06-15T09:35:23.342Z,1012.69
2017-06-15T09:36:35.581Z,1012.65
2017-06-15T09:37:48.127Z,1012.62
2017-06-15T09:39:00.702Z,1012.61
2017-06-15T09:40:13.273Z,1012.61
2017-06-15T09:41:25.519Z,1012.61
2017-06-15T09:42:37.811Z,1012.64
2017-06-15T09:43:50.384Z,1012.63
2017-06-15T09:45:02.678Z,1012.56
2017-06-15T09:46:15.204Z,1012.54
2017-06-15T09:47:27.763Z,1012.51
2017-06-15T09:48:40.016Z,1012.49
2017-06-15T09:49:52.289Z,1012.51
2017-06-15T09:51:04.536Z,1012.45
2017-06-15T09:52:16.803Z,1012.5
2017-06-15T09:53:29.341Z,1012.47
2017-06-15T09:54:41.896Z,1012.4
2017-06-15T09:55:54.170Z,1012.38
2017-06-15T09:57:06.736Z,1012.36
2017-06-15T09:58:18.978Z,1012.39
2017-06-15T09:59:31.509Z,1012.38
2017-06-15T10:00:44.071Z,1012.37
2017-06-15T10:01:56.623Z,1012.37
2017-06-15T10:03:09.192Z,1012.38
2017-06-15T10:04:20.854Z,1012.37
2017-06-15T10:05:33.412Z,1012.36
2017-06-15T10:06:46.007Z,1012.34
2017-06-15T10:07:57.974Z,1012.34
2017-06-15T10:09:09.895Z,1012.3
2017-06-15T10:10:22.170Z,1012.31
2017-06-15T10:11:34.742Z,1012.33
2017-06-15T10:12:47.002Z,1012.29
2017-06-15T10:13:59.554Z,1012.25
2017-06-15T10:15:11.801Z,1012.21
2017-06-15T10:16:24.080Z,1012.24
2017-06-15T10:17:36.646Z,1012.22
2017-06-15T10:18:49.209Z,1012.21
2017-06-15T10:20:01.788Z,1012.23
2017-06-15T10:21:14.033Z,1012.21
2017-06-15T10:22:26.277Z,1012.22
2017-06-15T10:23:38.847Z,1012.13
2017-06-15T10:24:51.421Z,1012.13
2017-06-15T10:26:03.081Z,1012.13
2017-06-15T10:27:15.360Z,1012.14
2017-06-15T10:28:27.931Z,1012.13
2017-06-15T10:29:40.477Z,1012.17
2017-06-15T10:30:53.073Z,1012.13
2017-06-15T10:32:05.611Z,1012.15
2017-06-15T10:33:17.867Z,1012.11
2017-06-15T10:34:30.438Z,1012.14
2017-06-15T10:35:43.010Z,1012.17
2017-06-15T10:36:55.553Z,1012.16
2017-06-15T10:38:08.102Z,1012.15
2017-06-15T10:39:20.675Z,1012.12
2017-06-15T10:40:32.939Z,1012.12
2017-06-15T10:41:45.507Z,1012.09
2017-06-15T10:42:58.103Z,1012.09
2017-06-15T10:44:10.381Z,1012.04
2017-06-15T10:45:22.957Z,1012.07
2017-06-15T10:46:35.494Z,1012.04
2017-06-15T10:47:48.033Z,1012.01
2017-06-15T10:49:00.618Z,1012.01
2017-06-15T10:50:12.890Z,1012.01
2017-06-15T10:51:25.455Z,1011.97
2017-06-15T10:52:38.017Z,1011.95
2017-06-15T10:53:49.965Z,1011.92
2017-06-15T10:55:02.237Z,1011.9
2017-06-15T10:56:14.511Z,1011.94
2017-06-15T10:57:27.088Z,1011.93
2017-06-15T10:58:39.331Z,1011.89
2017-06-15T10:59:51.883Z,1011.89
2017-06-15T11:01:04.450Z,1011.85
2017-06-15T11:02:17.048Z,1011.86
2017-06-15T11:03:29.287Z,1011.84
2017-06-15T11:04:41.842Z,1011.82
2017-06-15T11:05:54.383Z,1011.77
2017-06-15T11:07:06.959Z,1011.78
2017-06-15T11:08:19.249Z,1011.71
2017-06-15T11:09:31.217Z,1011.74
2017-06-15T11:10:43.484Z,1011.71
2017-06-15T11:11:56.054Z,1011.7
2017-06-15T11:13:08.305Z,1011.7
2017-06-15T11:14:20.858Z,1011.65
2017-06-15T11:15:33.399Z,1011.66
2017-06-15T11:16:45.360Z,1011.66
2017-06-15T11:17:57.609Z,1011.69
2017-06-15T11:19:09.892Z,1011.67
2017-06-15T11:20:22.184Z,1011.67
2017-06-15T11:21:34.454Z,1011.65
2017-06-15T11:22:47.027Z,1011.6
2017-06-15T11:23:59.272Z,1011.6
2017-06-15T11:25:11.519Z,1011.6
2017-06-15T11:26:24.087Z,1011.56
2017-06-15T11:27:36.653Z,1011.59
2017-06-15T11:28:49.211Z,1011.65
2017-06-15T11:30:01.777Z,1011.68
2017-06-15T11:31:14.046Z,1011.63
2017-06-15T11:32:26.664Z,1011.6
2017-06-15T11:33:39.273Z,1011.57
2017-06-15T11:34:51.884Z,1011.55
2017-06-15T11:36:04.485Z,1011.53
2017-06-15T11:37:16.747Z,1011.49
2017-06-15T11:38:29.020Z,1011.46
2017-06-15T11:39:41.593Z,1011.48
2017-06-15T11:40:54.167Z,1011.43
2017-06-15T11:42:06.710Z,1011.44
2017-06-15T11:43:18.686Z,1011.4
2017-06-15T11:44:31.249Z,1011.39
2017-06-15T11:45:43.519Z,1011.4
2017-06-15T11:46:56.068Z,1011.41
2017-06-15T11:48:08.640Z,1011.34
2017-06-15T11:49:21.205Z,1011.38
2017-06-15T11:50:33.755Z,1011.42
2017-06-15T11:51:46.028Z,1011.47
2017-06-15T11:52:58.620Z,1011.43
2017-06-15T11:54:11.197Z,1011.41
2017-06-15T11:55:23.461Z,1011.42
2017-06-15T11:56:36.007Z,1011.41
2017-06-15T11:57:48.257Z,1011.33
2017-06-15T11:59:00.826Z,1011.32
2017-06-15T12:00:13.123Z,1011.33
2017-06-15T12:01:25.716Z,1011.31
2017-06-15T12:02:38.295Z,1011.24
2017-06-15T12:03:50.862Z,1011.31
2017-06-15T12:05:03.421Z,1011.3
2017-06-15T12:06:15.950Z,1011.3
2017-06-15T12:07:28.517Z,1011.27
2017-06-15T12:08:40.771Z,1011.29
2017-06-15T12:09:53.342Z,1011.26
2017-06-15T12:11:05.287Z,1011.22
2017-06-15T12:12:17.556Z,1011.17
2017-06-15T12:13:29.801Z,1011.21
2017-06-15T12:14:42.375Z,1011.21
2017-06-15T12:15:54.921Z,1011.14
2017-06-15T12:17:07.180Z,1011.16
2017-06-15T12:18:19.434Z,1011.11
2017-06-15T12:19:31.973Z,1011.09
2017-06-15T12:20:44.222Z,1011.09
2017-06-15T12:21:56.773Z,1011.04
2017-06-15T12:23:09.339Z,1011.03
2017-06-15T12:24:21.619Z,1011.01
2017-06-15T12:25:34.162Z,1011.01
2017-06-15T12:26:46.734Z,1010.99
2017-06-15T12:27:59.300Z,1011
2017-06-15T12:29:11.550Z,1011.02
2017-06-15T12:30:24.127Z,1010.99
2017-06-15T12:31:36.682Z,1010.95
2017-06-15T12:32:49.231Z,1010.94
2017-06-15T12:34:01.484Z,1010.94
2017-06-15T12:35:14.051Z,1010.9
2017-06-15T12:36:26.303Z,1010.88
2017-06-15T12:37:38.869Z,1010.87
2017-06-15T12:38:51.415Z,1010.86
2017-06-15T12:40:03.981Z,1010.85
2017-06-15T12:41:16.256Z,1010.85
2017-06-15T12:42:28.545Z,1010.82
2017-06-15T12:43:41.073Z,1010.81
2017-06-15T12:44:53.615Z,1010.8
2017-06-15T12:46:06.182Z,1010.82
2017-06-15T12:47:18.736Z,1010.8
2017-06-15T12:48:31.314Z,1010.79
2017-06-15T12:49:43.880Z,1010.76
2017-06-15T12:50:56.453Z,1010.77
2017-06-15T12:52:09.024Z,1010.76
2017-06-15T12:53:21.294Z,1010.73
2017-06-15T12:54:33.854Z,1010.71
2017-06-15T12:55:46.408Z,1010.72
2017-06-15T12:56:58.971Z,1010.67
2017-06-15T12:58:11.202Z,1010.66
2017-06-15T12:59:23.475Z,1010.65
2017-06-15T13:00:35.745Z,1010.62
2017-06-15T13:01:48.308Z,1010.6
2017-06-15T13:03:00.883Z,1010.61
2017-06-15T13:04:13.438Z,1010.58
2017-06-15T13:05:26.006Z,1010.54
2017-06-15T13:06:38.549Z,1010.62
2017-06-15T13:07:51.112Z,1010.59
2017-06-15T13:09:03.691Z,1010.62
2017-06-15T13:10:16.229Z,1010.66
2017-06-15T13:11:28.800Z,1010.62
2017-06-15T13:12:41.053Z,1010.59
2017-06-15T13:13:53.599Z,1010.58
2017-06-15T13:15:05.884Z,1010.62
2017-06-15T13:16:18.434Z,1010.61
2017-06-15T13:17:30.687Z,1010.59
2017-06-15T13:18:42.957Z,1010.59
2017-06-15T13:19:55.553Z,1010.53
2017-06-15T13:21:07.828Z,1010.48
2017-06-15T13:22:20.364Z,1010.44
2017-06-15T13:23:32.631Z,1010.39
2017-06-15T13:24:45.151Z,1010.38
2017-06-15T13:25:57.707Z,1010.37
2017-06-15T13:27:09.930Z,1010.4
2017-06-15T13:28:22.176Z,1010.35
2017-06-15T13:29:34.439Z,1010.41
2017-06-15T13:30:46.985Z,1010.34
2017-06-15T13:31:59.579Z,1010.3
2017-06-15T13:33:12.155Z,1010.31
2017-06-15T13:34:24.430Z,1010.24
2017-06-15T13:35:36.715Z,1010.22
2017-06-15T13:36:49.235Z,1010.21
2017-06-15T13:38:01.789Z,1010.17
2017-06-15T13:39:14.037Z,1010.18
2017-06-15T13:40:26.290Z,1010.14
2017-06-15T13:41:38.859Z,1010.18
2017-06-15T13:42:51.422Z,1010.15
2017-06-15T13:44:03.639Z,1010.15
2017-06-15T13:45:16.207Z,1010.12
2017-06-15T13:46:28.753Z,1010.06
2017-06-15T13:47:41.352Z,1010.06
2017-06-15T13:48:53.934Z,1010.02
2017-06-15T13:50:06.202Z,1010
2017-06-15T13:51:18.515Z,1009.94
2017-06-15T13:52:31.068Z,1009.98
2017-06-15T13:53:43.315Z,1009.91
2017-06-15T13:54:55.566Z,1009.91
2017-06-15T13:56:07.524Z,1009.9
2017-06-15T13:57:19.796Z,1009.89
2017-06-15T13:58:32.066Z,1009.88
2017-06-15T13:59:44.316Z,1009.87
2017-06-15T14:00:56.557Z,1009.92
2017-06-15T14:02:09.099Z,1009.85
2017-06-15T14:03:21.653Z,1009.84
2017-06-15T14:04:33.920Z,1009.8
2017-06-15T14:05:46.520Z,1009.82
2017-06-15T14:06:59.094Z,1009.78
2017-06-15T14:08:11.642Z,1009.72
2017-06-15T14:09:24.217Z,1009.71
2017-06-15T14:10:36.472Z,1009.7
2017-06-15T14:11:49.029Z,1009.7
2017-06-15T14:13:01.275Z,1009.66
2017-06-15T14:14:13.816Z,1009.66
2017-06-15T14:15:26.367Z,1009.67
2017-06-15T14:16:38.629Z,1009.64
2017-06-15T14:17:51.181Z,1009.63
2017-06-15T14:19:03.729Z,1009.69
2017-06-15T14:20:16.324Z,1009.66
2017-06-15T14:21:28.874Z,1009.64
2017-06-15T14:22:41.106Z,1009.59
2017-06-15T14:23:53.665Z,1009.56
2017-06-15T14:25:05.934Z,1009.53
2017-06-15T14:26:18.468Z,1009.59
2017-06-15T14:27:30.700Z,1009.59
2017-06-15T14:28:43.237Z,1009.54
2017-06-15T14:29:55.531Z,1009.52
2017-06-15T14:31:07.162Z,1009.51
2017-06-15T14:32:19.714Z,1009.54
2017-06-15T14:33:32.276Z,1009.47
2017-06-15T14:34:44.819Z,1009.5
2017-06-15T14:35:57.036Z,1009.43
2017-06-15T14:37:09.592Z,1009.44
2017-06-15T14:38:21.863Z,1009.48
2017-06-15T14:39:34.380Z,1009.45